Time;durP1;ratioP1;P1;durP2;ratioP2;P2;SDS_P1;SDS_P2;PMS_P1;PMS_P2;Temp;Humidity;BMP_temperature;BMP_pressure;BME280_temperature;BME280_humidity;BME280_pressure;Samples;Min_cycle;Max_cycle;Signal;HPM_P1;HPM_P2
2022/03/30 00:00:10;;;;;;;51.38;32.35;;;10.80;99.90;;;;;;5052086;28;20501;-57
2022/03/30 00:02:36;;;;;;;51.50;33.13;;;10.90;99.90;;;;;;5052397;28;20116;-57
2022/03/30 00:05:02;;;;;;;51.60;31.58;;;10.90;99.90;;;;;;5052542;28;20104;-57
2022/03/30 00:07:31;;;;;;;48.05;31.27;;;10.80;99.90;;;;;;5052033;28;20044;-56
2022/03/30 00:10:04;;;;;;;50.97;31.75;;;10.70;99.90;;;;;;5052384;28;20056;-57
2022/03/30 00:12:30;;;;;;;48.00;31.92;;;10.70;99.90;;;;;;5051647;28;20125;-57
2022/03/30 00:14:57;;;;;;;51.03;32.42;;;10.70;99.90;;;;;;5051508;28;20450;-57
2022/03/30 00:17:22;;;;;;;49.72;31.63;;;10.60;99.90;;;;;;5051286;28;20484;-57
2022/03/30 00:19:48;;;;;;;49.08;31.42;;;10.60;99.90;;;;;;5051718;28;20025;-56
2022/03/30 00:22:14;;;;;;;52.40;33.25;;;10.60;99.90;;;;;;5051517;28;20481;-57
2022/03/30 00:24:43;;;;;;;47.45;31.67;;;10.50;99.90;;;;;;5051211;28;20039;-56
2022/03/30 00:27:09;;;;;;;52.17;32.28;;;10.50;99.90;;;;;;5051362;28;20021;-57
2022/03/30 00:29:35;;;;;;;51.60;32.05;;;10.50;99.90;;;;;;5051551;28;20052;-57
2022/03/30 00:32:01;;;;;;;54.35;32.85;;;10.50;99.90;;;;;;5049916;28;20029;-56
2022/03/30 00:34:26;;;;;;;52.38;30.92;;;10.40;99.90;;;;;;5051312;28;20029;-57
2022/03/30 00:36:52;;;;;;;56.75;33.03;;;10.40;99.90;;;;;;5051504;28;20048;-57
2022/03/30 00:39:18;;;;;;;48.92;31.23;;;10.40;99.90;;;;;;5051410;28;20049;-56
2022/03/30 00:41:44;;;;;;;56.35;32.85;;;10.30;99.90;;;;;;5052365;28;20063;-56
2022/03/30 00:44:12;;;;;;;50.25;31.05;;;10.40;99.90;;;;;;5052227;28;20021;-57
2022/03/30 00:46:39;;;;;;;53.67;32.05;;;10.30;99.90;;;;;;5050674;28;20537;-56
2022/03/30 00:49:05;;;;;;;52.65;31.17;;;10.30;99.90;;;;;;5051143;28;20060;-57
2022/03/30 00:51:34;;;;;;;48.25;30.35;;;10.20;99.90;;;;;;5050924;28;20032;-56
2022/03/30 00:54:00;;;;;;;50.80;31.25;;;10.20;99.90;;;;;;5051079;28;20052;-57
2022/03/30 00:56:29;;;;;;;54.25;31.80;;;10.20;99.90;;;;;;5050500;28;20044;-56
2022/03/30 00:58:55;;;;;;;50.70;31.60;;;10.20;99.90;;;;;;5050979;28;20079;-56
2022/03/30 01:01:23;;;;;;;52.30;32.35;;;10.20;99.90;;;;;;5049842;28;20021;-57
2022/03/30 01:03:48;;;;;;;56.42;32.53;;;10.20;99.90;;;;;;5051101;28;20029;-57
2022/03/30 01:06:14;;;;;;;58.63;33.03;;;10.20;99.90;;;;;;5049196;28;20524;-57
2022/03/30 01:08:39;;;;;;;52.90;32.08;;;10.20;99.90;;;;;;5050897;28;20033;-56
2022/03/30 01:11:05;;;;;;;54.92;32.47;;;10.30;99.90;;;;;;5050281;28;20125;-57
2022/03/30 01:13:32;;;;;;;56.15;32.72;;;10.20;99.90;;;;;;5049500;28;20449;-56
2022/03/30 01:15:59;;;;;;;51.65;32.42;;;10.20;99.90;;;;;;5051002;28;20025;-56
2022/03/30 01:18:24;;;;;;;55.45;33.78;;;10.20;99.90;;;;;;5050755;28;20021;-56
2022/03/30 01:20:50;;;;;;;56.28;33.25;;;10.20;99.90;;;;;;5049930;28;20031;-56
2022/03/30 01:23:19;;;;;;;57.78;33.67;;;10.10;99.90;;;;;;5050538;28;20033;-57
2022/03/30 01:25:44;;;;;;;63.13;33.55;;;10.00;99.90;;;;;;5050602;28;20414;-56
2022/03/30 01:28:12;;;;;;;53.00;33.05;;;10.00;99.90;;;;;;5050565;28;20029;-56
2022/03/30 01:33:22;;;;;;;56.25;33.67;;;10.00;99.90;;;;;;5050168;28;20136;-56
2022/03/30 01:35:47;;;;;;;57.72;33.95;;;9.90;99.90;;;;;;5050200;28;20100;-56
2022/03/30 01:38:13;;;;;;;59.63;33.78;;;9.90;99.90;;;;;;5050275;28;20066;-56
2022/03/30 01:40:39;;;;;;;55.38;33.47;;;9.90;99.90;;;;;;5050227;28;20320;-57
2022/03/30 01:43:05;;;;;;;64.53;34.47;;;9.90;99.90;;;;;;5049999;28;20032;-56
2022/03/30 01:45:31;;;;;;;62.42;34.97;;;9.80;99.90;;;;;;5051137;28;20029;-56
2022/03/30 01:48:01;;;;;;;56.95;33.42;;;9.70;99.90;;;;;;5050966;28;20258;-56
2022/03/30 01:50:30;;;;;;;55.13;33.45;;;9.50;99.90;;;;;;5055281;28;20048;-59
2022/03/30 01:52:55;;;;;;;59.35;34.42;;;9.50;99.90;;;;;;5054930;28;20520;-56
2022/03/30 01:55:21;;;;;;;61.30;34.22;;;9.40;99.90;;;;;;5070979;28;20025;-57
2022/03/30 01:57:47;;;;;;;59.85;34.95;;;9.40;99.90;;;;;;5054701;28;20100;-57
2022/03/30 02:00:15;;;;;;;57.42;34.45;;;9.30;99.90;;;;;;5054289;28;20538;-57
2022/03/30 02:02:41;;;;;;;61.90;35.05;;;9.30;99.90;;;;;;5054147;28;20055;-56
2022/03/30 02:05:08;;;;;;;56.67;34.00;;;9.30;99.90;;;;;;5052347;28;20443;-57
2022/03/30 02:07:38;;;;;;;58.85;34.53;;;9.30;99.90;;;;;;5053710;28;20056;-56
2022/03/30 02:10:06;;;;;;;56.33;33.90;;;9.30;99.90;;;;;;5053451;28;20059;-57
2022/03/30 02:12:32;;;;;;;61.55;34.05;;;9.30;99.90;;;;;;5053236;28;20378;-56
2022/03/30 02:14:58;;;;;;;58.80;34.25;;;9.30;99.90;;;;;;5054219;28;20033;-57
2022/03/30 02:17:27;;;;;;;54.67;32.92;;;9.20;99.90;;;;;;5054697;28;20033;-56
2022/03/30 02:19:57;;;;;;;55.83;34.38;;;9.20;99.90;;;;;;5054106;28;20521;-56
2022/03/30 02:22:22;;;;;;;59.85;34.40;;;9.20;99.90;;;;;;5054757;28;20502;-56
2022/03/30 02:24:50;;;;;;;60.20;33.90;;;9.20;99.90;;;;;;5055038;28;20025;-56
2022/03/30 02:27:16;;;;;;;62.15;34.38;;;9.20;99.90;;;;;;5053356;28;20036;-56
2022/03/30 02:29:41;;;;;;;55.95;34.03;;;9.10;99.90;;;;;;5052435;28;20103;-56
2022/03/30 02:32:10;;;;;;;57.75;32.28;;;9.10;99.90;;;;;;5053404;28;20028;-58
2022/03/30 02:34:36;;;;;;;57.42;33.70;;;9.00;99.90;;;;;;5053217;28;20090;-56
2022/03/30 02:37:02;;;;;;;58.00;33.67;;;9.00;99.90;;;;;;5053092;28;20537;-56
2022/03/30 02:39:27;;;;;;;58.72;32.78;;;9.00;99.90;;;;;;5053044;28;20049;-56
2022/03/30 02:41:55;;;;;;;58.60;33.72;;;9.00;99.90;;;;;;5068478;28;20060;-56
2022/03/30 02:44:21;;;;;;;54.22;32.83;;;8.90;99.90;;;;;;5051815;28;20108;-57
2022/03/30 02:46:47;;;;;;;55.45;33.58;;;8.90;99.90;;;;;;5054008;28;20095;-56
2022/03/30 02:49:12;;;;;;;55.90;33.08;;;8.90;99.90;;;;;;5053732;28;20067;-57
2022/03/30 02:51:39;;;;;;;59.83;32.42;;;8.90;99.90;;;;;;5052965;28;20028;-56
2022/03/30 02:54:05;;;;;;;57.53;32.20;;;8.90;99.90;;;;;;5053008;28;20017;-56
2022/03/30 02:56:31;;;;;;;57.80;32.38;;;9.00;99.90;;;;;;5053183;28;20018;-56
2022/03/30 02:58:57;;;;;;;54.95;30.33;;;9.00;99.90;;;;;;5053596;28;20021;-56
2022/03/30 03:01:22;;;;;;;61.50;34.05;;;9.10;99.90;;;;;;5053448;28;20029;-56
2022/03/30 03:03:48;;;;;;;54.30;30.92;;;9.20;99.90;;;;;;5052921;28;20461;-56
2022/03/30 03:06:13;;;;;;;56.63;31.05;;;9.20;99.90;;;;;;5052243;28;20020;-56
2022/03/30 03:08:39;;;;;;;60.22;30.70;;;9.20;99.90;;;;;;5053582;28;20025;-56
2022/03/30 03:11:05;;;;;;;60.08;30.35;;;9.10;99.90;;;;;;5052312;28;20025;-56
2022/03/30 03:13:30;;;;;;;59.50;30.73;;;9.10;99.90;;;;;;5052899;28;20025;-56
2022/03/30 03:15:56;;;;;;;48.67;29.67;;;9.20;99.90;;;;;;5052458;28;20025;-56
2022/03/30 03:18:22;;;;;;;58.70;30.35;;;9.20;99.90;;;;;;5052591;28;20433;-56
2022/03/30 03:20:49;;;;;;;53.25;30.95;;;9.30;99.90;;;;;;5053225;28;20025;-56
2022/03/30 03:23:16;;;;;;;53.45;29.75;;;9.40;99.90;;;;;;5051264;28;20053;-56
2022/03/30 03:25:42;;;;;;;60.13;31.63;;;9.40;99.90;;;;;;5051304;28;20063;-56
2022/03/30 03:28:09;;;;;;;50.88;31.63;;;9.40;99.90;;;;;;5053045;28;20064;-56
2022/03/30 03:30:35;;;;;;;54.90;30.92;;;9.30;99.90;;;;;;5052995;28;20025;-56
2022/03/30 03:33:01;;;;;;;56.25;31.23;;;9.30;99.90;;;;;;5052565;28;20033;-56
2022/03/30 03:35:27;;;;;;;52.33;30.55;;;9.20;99.90;;;;;;5053748;28;20013;-57
2022/03/30 03:37:53;;;;;;;56.42;30.38;;;9.20;99.90;;;;;;5053907;28;20037;-56
2022/03/30 03:40:19;;;;;;;55.53;30.17;;;9.20;99.90;;;;;;5054116;28;20018;-56
2022/03/30 03:42:44;;;;;;;52.42;30.10;;;9.20;99.90;;;;;;5053245;28;20021;-56
2022/03/30 03:45:11;;;;;;;54.03;29.92;;;9.20;99.90;;;;;;5053318;28;20521;-56
2022/03/30 03:47:37;;;;;;;57.97;30.30;;;9.10;99.90;;;;;;5053625;28;20502;-56
2022/03/30 03:50:03;;;;;;;58.53;33.63;;;9.10;99.90;;;;;;5052665;28;20040;-57
2022/03/30 03:52:29;;;;;;;51.63;30.23;;;9.10;99.90;;;;;;5068004;28;20406;-57
2022/03/30 03:54:54;;;;;;;56.47;30.50;;;9.20;99.90;;;;;;5052763;28;20474;-57
2022/03/30 03:57:20;;;;;;;55.53;29.98;;;9.20;99.90;;;;;;5052136;28;20489;-57
2022/03/30 03:59:46;;;;;;;54.05;28.38;;;9.20;99.90;;;;;;5052164;28;20029;-57
2022/03/30 04:02:11;;;;;;;57.05;30.48;;;9.30;99.90;;;;;;5052407;28;20117;-57
2022/03/30 04:04:37;;;;;;;56.28;29.33;;;9.30;99.90;;;;;;5052136;28;20056;-57
2022/03/30 04:07:04;;;;;;;59.97;30.33;;;9.20;99.90;;;;;;5052134;28;20028;-57
2022/03/30 04:09:29;;;;;;;50.05;28.55;;;9.20;99.90;;;;;;5052398;28;20461;-57
2022/03/30 04:11:55;;;;;;;49.90;29.40;;;9.10;99.90;;;;;;5051834;28;20061;-57
2022/03/30 04:14:20;;;;;;;54.33;29.30;;;9.10;99.90;;;;;;5052020;28;20745;-57
2022/03/30 04:16:47;;;;;;;53.00;26.85;;;9.00;99.90;;;;;;5051760;28;20021;-57
2022/03/30 04:19:13;;;;;;;47.20;27.80;;;9.00;99.90;;;;;;5051768;28;20017;-57
2022/03/30 04:21:39;;;;;;;49.20;27.60;;;9.00;99.90;;;;;;5051637;28;20028;-57
2022/03/30 04:24:05;;;;;;;46.10;26.73;;;9.00;99.90;;;;;;5051644;28;20546;-57
2022/03/30 04:26:30;;;;;;;45.78;27.23;;;9.10;99.90;;;;;;5051635;28;20041;-57
2022/03/30 04:28:56;;;;;;;52.35;27.35;;;9.20;99.90;;;;;;5051533;28;20032;-57
2022/03/30 04:31:22;;;;;;;48.97;26.33;;;9.20;99.90;;;;;;5050281;28;20513;-57
2022/03/30 04:33:47;;;;;;;52.58;26.23;;;9.10;99.90;;;;;;5051127;28;20083;-57
2022/03/30 04:36:13;;;;;;;50.92;27.52;;;9.20;99.90;;;;;;5050616;28;20029;-57
2022/03/30 04:38:39;;;;;;;51.92;27.67;;;9.20;99.90;;;;;;5051250;28;20063;-57
2022/03/30 04:41:04;;;;;;;50.03;27.80;;;9.30;99.90;;;;;;5049511;28;20364;-57
2022/03/30 04:43:31;;;;;;;53.00;26.45;;;9.30;99.90;;;;;;5049838;28;20087;-57
2022/03/30 04:45:56;;;;;;;52.97;27.42;;;9.20;99.90;;;;;;5050909;28;20494;-57
2022/03/30 04:48:23;;;;;;;53.10;26.85;;;9.20;99.90;;;;;;5050974;28;20017;-56
2022/03/30 04:50:49;;;;;;;48.65;27.10;;;9.20;99.90;;;;;;5051448;28;20025;-57
2022/03/30 04:53:15;;;;;;;45.05;26.20;;;9.10;99.90;;;;;;5050676;28;20367;-56
2022/03/30 04:55:44;;;;;;;48.10;25.95;;;9.00;99.90;;;;;;5050570;28;20055;-56
2022/03/30 04:58:09;;;;;;;51.58;26.63;;;9.00;99.90;;;;;;5050898;28;20474;-56
2022/03/30 05:00:36;;;;;;;48.88;26.02;;;8.90;99.90;;;;;;5051272;28;20058;-57
2022/03/30 05:03:03;;;;;;;49.88;26.15;;;8.90;99.90;;;;;;5051440;28;20031;-56
2022/03/30 05:05:28;;;;;;;51.85;26.75;;;8.80;99.90;;;;;;5051229;28;20115;-56
2022/03/30 05:07:57;;;;;;;49.35;25.17;;;8.70;99.90;;;;;;5051011;28;20481;-56
2022/03/30 05:10:22;;;;;;;48.50;25.73;;;8.60;99.90;;;;;;5051442;28;20048;-56
2022/03/30 05:12:48;;;;;;;52.63;27.52;;;8.60;99.90;;;;;;5050531;28;20029;-56
2022/03/30 05:15:14;;;;;;;45.55;26.17;;;8.70;99.90;;;;;;5051236;28;20075;-56
2022/03/30 05:17:43;;;;;;;56.97;27.45;;;8.70;99.90;;;;;;5051261;28;20025;-56
2022/03/30 05:20:13;;;;;;;44.03;26.55;;;8.70;99.90;;;;;;5050800;28;20030;-57
2022/03/30 05:22:39;;;;;;;52.30;27.88;;;8.60;99.90;;;;;;5050880;28;20458;-56
2022/03/30 05:25:06;;;;;;;58.45;26.90;;;8.50;99.90;;;;;;5055064;28;20120;-56
2022/03/30 05:27:32;;;;;;;50.03;26.70;;;8.60;99.90;;;;;;5055898;28;20025;-56
2022/03/30 05:29:58;;;;;;;50.97;25.90;;;8.60;99.90;;;;;;5055916;28;20522;-56
2022/03/30 05:32:24;;;;;;;41.20;25.92;;;8.60;99.90;;;;;;5055000;28;20040;-57
2022/03/30 05:34:50;;;;;;;50.38;26.58;;;8.60;99.90;;;;;;5054909;28;20040;-57
2022/03/30 05:37:15;;;;;;;44.85;25.88;;;8.60;99.90;;;;;;5054679;28;20099;-56
2022/03/30 05:39:42;;;;;;;45.50;26.13;;;8.60;99.90;;;;;;5055038;28;20032;-57
2022/03/30 05:42:12;;;;;;;50.05;26.35;;;8.60;99.90;;;;;;5054877;28;20052;-56
2022/03/30 05:44:38;;;;;;;48.67;25.90;;;8.60;99.90;;;;;;5055396;28;20021;-58
2022/03/30 05:47:06;;;;;;;49.17;25.85;;;8.70;99.90;;;;;;5052864;28;20029;-56
2022/03/30 05:49:32;;;;;;;53.15;26.17;;;8.60;99.90;;;;;;5053045;28;20035;-57
2022/03/30 05:51:58;;;;;;;48.72;26.05;;;8.60;99.90;;;;;;5054241;28;20120;-56
2022/03/30 05:54:24;;;;;;;43.47;25.52;;;8.60;99.90;;;;;;5060596;28;20104;-56
2022/03/30 05:57:01;;;;;;;50.67;26.48;;;8.60;99.90;;;;;;5057370;28;20563;-56
2022/03/30 05:59:38;;;;;;;52.60;26.65;;;8.60;99.90;;;;;;5053439;28;20109;-57
2022/03/30 06:02:05;;;;;;;53.50;26.17;;;8.60;99.90;;;;;;5061072;28;20120;-56
2022/03/30 06:04:31;;;;;;;49.13;25.55;;;8.60;99.90;;;;;;5047456;28;20044;-57
2022/03/30 06:06:58;;;;;;;49.38;26.30;;;8.60;99.90;;;;;;5047879;28;20033;-56
2022/03/30 06:09:24;;;;;;;52.08;26.77;;;8.60;99.90;;;;;;5047177;28;20484;-57
2022/03/30 06:11:50;;;;;;;53.72;26.52;;;8.70;99.90;;;;;;5045395;28;20070;-57
2022/03/30 06:14:16;;;;;;;51.03;26.58;;;8.70;99.90;;;;;;5048759;28;20029;-56
2022/03/30 06:16:43;;;;;;;49.63;25.17;;;8.70;99.90;;;;;;5051354;28;20516;-56
2022/03/30 06:19:13;;;;;;;67.95;28.15;;;8.80;99.90;;;;;;5048452;28;20104;-56
2022/03/30 06:21:42;;;;;;;74.53;28.75;;;8.90;99.90;;;;;;5047886;28;20028;-56
2022/03/30 06:24:10;;;;;;;55.55;27.13;;;8.90;99.90;;;;;;5048952;28;20107;-56
2022/03/30 06:26:37;;;;;;;59.47;26.48;;;9.00;99.90;;;;;;5055899;28;20397;-56
2022/03/30 06:29:03;;;;;;;56.60;27.98;;;9.10;99.90;;;;;;5051538;28;20409;-56
2022/03/30 06:31:29;;;;;;;54.50;26.83;;;9.20;99.90;;;;;;5052051;28;20100;-56
2022/03/30 06:33:54;;;;;;;49.42;25.10;;;9.30;99.90;;;;;;5048604;28;20028;-56
2022/03/30 06:36:20;;;;;;;50.25;25.70;;;9.50;99.90;;;;;;5046789;28;20411;-57
2022/03/30 06:38:45;;;;;;;82.00;56.17;;;9.50;99.90;;;;;;5049484;28;20514;-56
2022/03/30 06:41:17;;;;;;;50.58;26.08;;;9.60;99.90;;;;;;5051462;28;20490;-57
2022/03/30 06:43:46;;;;;;;53.08;25.35;;;9.80;99.90;;;;;;5040934;28;20033;-56
2022/03/30 06:46:13;;;;;;;48.70;26.20;;;10.00;99.90;;;;;;5043793;28;20093;-56
2022/03/30 06:48:39;;;;;;;52.67;25.83;;;9.90;99.90;;;;;;5045008;28;20035;-56
2022/03/30 06:51:04;;;;;;;54.78;26.95;;;9.90;99.90;;;;;;5050280;28;20033;-56
2022/03/30 06:53:30;;;;;;;49.92;27.02;;;9.80;99.90;;;;;;5045374;28;20043;-56
2022/03/30 06:55:57;;;;;;;52.80;26.02;;;9.70;99.90;;;;;;5053474;28;20020;-55
2022/03/30 06:58:22;;;;;;;56.88;27.08;;;9.50;99.90;;;;;;5049302;28;20025;-56
2022/03/30 07:00:49;;;;;;;54.90;25.38;;;9.60;99.90;;;;;;5051625;28;20536;-56
2022/03/30 07:03:15;;;;;;;48.58;25.27;;;9.50;99.90;;;;;;5053469;28;22130;-56
2022/03/30 07:05:41;;;;;;;48.10;25.23;;;9.60;99.90;;;;;;5051270;28;20043;-56
2022/03/30 07:10:51;;;;;;;44.42;24.95;;;9.70;99.90;;;;;;5053764;28;20098;-56
2022/03/30 07:13:16;;;;;;;50.22;25.77;;;9.60;99.90;;;;;;5047148;28;20025;-55
2022/03/30 07:15:42;;;;;;;55.67;26.20;;;9.60;99.90;;;;;;5044130;28;20494;-55
2022/03/30 07:18:08;;;;;;;47.55;25.95;;;9.60;99.90;;;;;;5049358;28;20052;-56
2022/03/30 07:20:35;;;;;;;39.97;25.23;;;9.60;99.90;;;;;;5046275;28;20056;-56
2022/03/30 07:23:01;;;;;;;55.28;25.27;;;9.70;99.90;;;;;;5049899;28;20029;-56
2022/03/30 07:49:34;;;;;;;38.72;21.63;;;11.10;99.90;;;;;;5042013;28;20108;-57
2022/03/30 07:52:03;;;;;;;50.92;23.40;;;11.00;99.90;;;;;;5046677;28;20037;-57
2022/03/30 07:54:29;;;;;;;45.00;22.80;;;11.10;99.90;;;;;;5049928;28;20032;-57
2022/03/30 07:56:54;;;;;;;38.67;21.17;;;11.10;99.90;;;;;;5051590;28;20418;-56
2022/03/30 07:59:20;;;;;;;38.75;21.30;;;11.30;99.90;;;;;;5047155;28;20055;-56
2022/03/30 08:01:46;;;;;;;42.17;21.42;;;11.50;99.90;;;;;;5052650;28;20021;-57
2022/03/30 08:04:11;;;;;;;41.60;21.25;;;12.00;99.90;;;;;;5037189;28;20264;-57
2022/03/30 08:06:38;;;;;;;36.85;20.48;;;12.30;99.90;;;;;;5043242;28;20029;-57
2022/03/30 08:09:04;;;;;;;39.45;21.00;;;12.50;99.90;;;;;;5049048;28;20119;-56
2022/03/30 08:11:30;;;;;;;42.13;21.17;;;12.30;99.90;;;;;;5047887;28;20033;-56
2022/03/30 08:13:56;;;;;;;39.70;20.67;;;12.00;99.90;;;;;;5049943;28;20029;-56
2022/03/30 08:16:22;;;;;;;46.38;22.83;;;11.80;99.90;;;;;;5047110;28;20498;-56
2022/03/30 08:18:48;;;;;;;42.55;21.55;;;11.90;99.90;;;;;;5050718;28;20059;-56
2022/03/30 08:23:58;;;;;;;36.42;19.88;;;13.20;99.90;;;;;;5052227;28;20398;-57
2022/03/30 08:26:24;;;;;;;33.60;19.85;;;13.80;99.30;;;;;;5049481;28;20041;-57
2022/03/30 08:28:50;;;;;;;38.50;21.25;;;14.10;99.00;;;;;;5048581;28;20033;-57
2022/03/30 08:31:15;;;;;;;31.95;19.88;;;14.40;98.00;;;;;;5054763;28;20252;-57
2022/03/30 08:33:41;;;;;;;37.72;20.33;;;14.80;96.90;;;;;;5048264;28;20027;-57
2022/03/30 08:36:07;;;;;;;40.92;19.92;;;15.00;96.30;;;;;;5057453;28;20037;-57
2022/03/30 08:38:34;;;;;;;37.17;19.42;;;14.50;96.10;;;;;;5045540;28;20363;-57
2022/03/30 08:40:59;;;;;;;38.08;19.73;;;13.80;96.90;;;;;;5045241;28;20039;-57
2022/03/30 08:43:26;;;;;;;36.58;18.98;;;13.50;97.80;;;;;;5038069;28;20036;-56
2022/03/30 08:45:55;;;;;;;31.95;18.42;;;13.50;98.30;;;;;;5043836;28;20055;-58
2022/03/30 08:48:22;;;;;;;31.40;18.65;;;13.70;98.20;;;;;;5046575;28;20091;-56
2022/03/30 08:50:50;;;;;;;36.63;19.00;;;14.00;97.10;;;;;;5027147;28;20183;-57
2022/03/30 08:53:16;;;;;;;34.33;19.05;;;14.20;97.00;;;;;;5048119;28;20032;-57
2022/03/30 08:55:42;;;;;;;41.42;20.65;;;14.10;96.90;;;;;;5048458;28;20548;-57
2022/03/30 08:58:08;;;;;;;34.10;19.27;;;13.90;97.40;;;;;;5039372;28;20092;-57
2022/03/30 09:00:34;;;;;;;36.90;19.05;;;13.90;97.10;;;;;;5045642;28;20055;-57
2022/03/30 09:03:01;;;;;;;29.33;18.95;;;13.70;97.60;;;;;;5043647;28;20101;-57
2022/03/30 09:05:30;;;;;;;34.20;18.92;;;13.40;98.00;;;;;;5047523;28;20071;-56
2022/03/30 09:08:07;;;;;;;38.08;19.83;;;13.40;98.20;;;;;;5046101;28;20029;-56
2022/03/30 09:10:32;;;;;;;40.38;19.90;;;13.30;98.40;;;;;;5042491;28;20135;-56
2022/03/30 09:12:58;;;;;;;36.67;20.05;;;13.50;98.00;;;;;;5046014;28;20677;-57
2022/03/30 09:15:25;;;;;;;34.70;20.17;;;13.50;98.10;;;;;;5045529;28;20293;-57
2022/03/30 09:17:57;;;;;;;33.78;19.25;;;13.40;98.10;;;;;;5044769;28;20395;-57
2022/03/30 09:20:23;;;;;;;38.63;18.17;;;13.20;98.20;;;;;;5046117;28;20104;-57
2022/03/30 09:22:55;;;;;;;32.45;19.02;;;13.20;98.40;;;;;;5041237;28;20037;-57
2022/03/30 09:25:24;;;;;;;46.25;22.25;;;13.00;98.40;;;;;;5048546;28;20040;-57
2022/03/30 09:27:52;;;;;;;49.10;21.55;;;12.60;99.10;;;;;;5038477;28;20079;-57
2022/03/30 09:30:19;;;;;;;43.95;20.73;;;12.50;99.90;;;;;;5041706;28;20033;-58
2022/03/30 09:32:46;;;;;;;41.22;21.25;;;12.40;99.90;;;;;;5041507;28;20038;-58
2022/03/30 09:35:24;;;;;;;41.40;20.35;;;12.40;99.90;;;;;;5053710;28;20025;-58
2022/03/30 09:38:03;;;;;;;36.28;20.95;;;12.50;99.60;;;;;;5047727;28;20501;-58
2022/03/30 09:40:52;;;;;;;37.78;20.88;;;12.70;99.50;;;;;;5043614;28;20032;-58
2022/03/30 09:43:26;;;;;;;39.58;20.85;;;12.70;99.70;;;;;;5062064;28;20034;-57
2022/03/30 09:46:08;;;;;;;37.65;19.83;;;12.60;99.60;;;;;;5044986;28;20028;-57
2022/03/30 09:48:53;;;;;;;41.38;19.77;;;12.80;99.90;;;;;;5049755;28;20094;-57
2022/03/30 09:51:24;;;;;;;37.35;19.23;;;13.20;98.80;;;;;;5044686;28;20029;-58
2022/03/30 09:53:51;;;;;;;34.72;18.73;;;13.20;97.80;;;;;;5049605;28;20024;-58
2022/03/30 09:56:19;;;;;;;32.13;19.02;;;13.10;97.90;;;;;;5044536;28;20112;-57
2022/03/30 09:58:46;;;;;;;28.85;18.13;;;13.10;97.90;;;;;;5051107;28;20500;-57
2022/03/30 10:01:17;;;;;;;37.40;17.83;;;13.30;96.60;;;;;;5047118;28;20021;-58
2022/03/30 10:03:54;;;;;;;32.85;17.98;;;13.30;97.30;;;;;;5046085;28;20116;-58
2022/03/30 10:06:29;;;;;;;39.67;17.58;;;13.50;97.00;;;;;;5044460;28;20074;-57
2022/03/30 10:08:56;;;;;;;32.30;17.10;;;13.70;96.20;;;;;;5045410;28;20475;-58
2022/03/30 10:11:24;;;;;;;36.00;18.02;;;14.00;96.10;;;;;;5054366;28;20116;-58
2022/03/30 10:13:55;;;;;;;40.85;17.33;;;14.30;95.00;;;;;;5047152;28;20121;-57
2022/03/30 10:16:22;;;;;;;32.88;17.85;;;14.70;94.80;;;;;;5052204;28;20025;-57
2022/03/30 10:18:50;;;;;;;27.05;15.75;;;14.60;93.80;;;;;;5056095;28;20036;-57
2022/03/30 10:21:27;;;;;;;30.40;16.80;;;14.40;93.50;;;;;;5053271;28;20357;-57
2022/03/30 10:24:04;;;;;;;31.27;17.80;;;14.20;93.70;;;;;;5051403;28;20032;-57
2022/03/30 10:26:42;;;;;;;30.35;15.70;;;14.50;94.10;;;;;;5056081;28;20047;-57
2022/03/30 10:29:11;;;;;;;25.65;16.88;;;14.70;93.30;;;;;;5054133;28;20138;-58
2022/03/30 10:31:37;;;;;;;32.85;18.83;;;14.70;93.30;;;;;;5052436;28;20060;-57
2022/03/30 10:34:27;;;;;;;30.73;16.17;;;14.50;93.90;;;;;;5059682;28;20110;-57
2022/03/30 10:37:08;;;;;;;32.55;16.40;;;14.20;94.10;;;;;;5050613;28;20086;-58
2022/03/30 10:39:52;;;;;;;30.75;17.00;;;14.50;93.90;;;;;;5055332;28;20104;-57
2022/03/30 10:42:18;;;;;;;30.80;16.98;;;14.70;93.90;;;;;;5057277;28;20078;-57
2022/03/30 10:44:46;;;;;;;29.83;17.33;;;14.90;93.10;;;;;;5053301;28;20025;-57
2022/03/30 10:47:18;;;;;;;30.35;17.08;;;14.70;93.00;;;;;;5054407;28;20021;-58
2022/03/30 10:49:55;;;;;;;27.27;16.13;;;14.50;92.20;;;;;;5054925;28;20072;-57
2022/03/30 10:52:25;;;;;;;29.55;16.67;;;14.30;92.70;;;;;;5053312;28;20057;-57
2022/03/30 10:54:55;;;;;;;33.10;17.70;;;13.90;93.50;;;;;;5053843;28;20044;-57
2022/03/30 10:57:43;;;;;;;33.20;18.23;;;13.80;93.90;;;;;;5053108;28;20051;-57
2022/03/30 11:00:19;;;;;;;25.20;16.08;;;13.70;94.20;;;;;;5053325;28;20026;-57
2022/03/30 11:02:46;;;;;;;25.10;15.55;;;13.50;93.60;;;;;;5051136;28;20029;-57
2022/03/30 11:05:14;;;;;;;31.20;17.33;;;13.30;94.20;;;;;;5053254;28;20029;-57
2022/03/30 11:07:40;;;;;;;38.53;17.00;;;13.20;94.70;;;;;;5053681;28;20031;-57
2022/03/30 11:10:21;;;;;;;34.92;17.30;;;13.30;94.60;;;;;;5053702;28;20364;-57
2022/03/30 11:13:00;;;;;;;24.83;16.42;;;13.30;94.50;;;;;;5053499;28;20396;-57
2022/03/30 11:15:26;;;;;;;31.50;17.00;;;13.40;94.50;;;;;;5053209;28;20382;-57
2022/03/30 11:17:53;;;;;;;33.90;16.90;;;13.40;94.50;;;;;;5053029;28;20467;-57
2022/03/30 11:20:19;;;;;;;29.20;17.45;;;13.30;94.50;;;;;;5052923;28;20025;-58
2022/03/30 11:22:46;;;;;;;28.60;16.67;;;13.60;94.20;;;;;;5053264;28;20486;-57
2022/03/30 11:25:19;;;;;;;26.02;16.42;;;13.90;94.10;;;;;;5053197;28;20039;-58
2022/03/30 11:28:07;;;;;;;25.90;16.05;;;14.30;93.30;;;;;;5052215;28;20025;-57
2022/03/30 11:30:37;;;;;;;31.95;17.48;;;14.40;92.30;;;;;;5050949;28;20131;-57
2022/03/30 11:33:26;;;;;;;29.20;16.95;;;14.40;92.80;;;;;;5056699;28;20056;-58
2022/03/30 11:35:52;;;;;;;28.98;16.23;;;14.30;92.60;;;;;;5055334;28;20021;-58
2022/03/30 11:38:24;;;;;;;36.45;17.20;;;14.10;92.10;;;;;;5053053;28;20112;-57
2022/03/30 11:40:58;;;;;;;31.52;17.30;;;13.90;93.40;;;;;;5052477;28;20181;-57
2022/03/30 11:43:24;;;;;;;32.63;17.85;;;14.00;93.40;;;;;;5053282;28;20044;-58
2022/03/30 11:45:51;;;;;;;28.42;16.83;;;14.10;93.30;;;;;;5052408;28;20033;-57
2022/03/30 11:48:17;;;;;;;34.42;18.30;;;14.10;93.20;;;;;;5052004;28;20056;-57
2022/03/30 11:50:53;;;;;;;27.70;15.50;;;14.20;92.60;;;;;;5052318;28;20402;-57
2022/03/30 11:53:29;;;;;;;29.25;15.90;;;14.20;92.70;;;;;;5051979;28;20043;-58
2022/03/30 11:56:08;;;;;;;26.95;16.02;;;14.40;92.20;;;;;;5052339;28;20027;-57
2022/03/30 11:58:36;;;;;;;28.20;16.10;;;14.20;92.00;;;;;;5052766;28;20397;-57
2022/03/30 12:01:10;;;;;;;32.78;16.75;;;14.20;92.10;;;;;;5053388;28;20386;-57
2022/03/30 12:03:36;;;;;;;26.55;16.05;;;14.10;92.50;;;;;;5067723;28;20367;-58
2022/03/30 12:06:05;;;;;;;27.92;14.70;;;14.20;92.30;;;;;;5051691;28;20090;-57
2022/03/30 12:08:52;;;;;;;32.30;15.95;;;14.20;91.80;;;;;;5051471;28;20036;-58
2022/03/30 12:11:23;;;;;;;33.22;16.05;;;14.40;90.80;;;;;;5052328;28;20029;-58
2022/03/30 12:13:54;;;;;;;29.75;15.60;;;14.40;91.00;;;;;;5051762;28;20140;-57
2022/03/30 12:16:21;;;;;;;23.05;15.10;;;14.50;91.10;;;;;;5051453;28;20060;-57
2022/03/30 12:18:51;;;;;;;27.38;15.50;;;14.60;91.10;;;;;;5051691;28;20021;-58
2022/03/30 12:21:21;;;;;;;27.63;16.20;;;14.70;90.50;;;;;;5051427;28;20024;-58
2022/03/30 12:24:02;;;;;;;24.70;15.68;;;14.70;90.80;;;;;;5051352;28;20032;-57
2022/03/30 12:26:28;;;;;;;34.90;17.15;;;14.80;90.70;;;;;;5051218;28;20029;-57
2022/03/30 12:29:15;;;;;;;26.23;16.17;;;14.60;91.00;;;;;;5052037;28;20102;-57
2022/03/30 12:31:45;;;;;;;26.95;17.13;;;14.30;91.40;;;;;;5051216;28;20025;-58
2022/03/30 12:34:15;;;;;;;27.80;17.10;;;14.20;92.00;;;;;;5051158;28;20033;-57
2022/03/30 12:36:43;;;;;;;33.13;16.70;;;14.30;91.60;;;;;;5048969;28;20083;-58
2022/03/30 12:39:39;;;;;;;26.40;16.42;;;14.30;92.00;;;;;;5051512;28;20028;-57
2022/03/30 12:42:09;;;;;;;31.15;17.52;;;14.40;91.50;;;;;;5029942;28;20060;-57
2022/03/30 12:44:40;;;;;;;27.27;16.90;;;14.50;91.50;;;;;;5031968;28;20094;-57
2022/03/30 12:47:32;;;;;;;30.55;17.73;;;14.60;91.50;;;;;;5031959;28;20391;-57
2022/03/30 12:50:19;;;;;;;33.35;18.27;;;14.50;91.40;;;;;;5031923;28;20044;-57
2022/03/30 12:52:48;;;;;;;28.70;17.25;;;14.40;91.50;;;;;;5030826;28;20042;-57
2022/03/30 12:55:24;;;;;;;26.52;16.55;;;14.60;91.80;;;;;;5042865;28;20017;-58
2022/03/30 12:57:58;;;;;;;27.23;16.30;;;14.80;91.60;;;;;;5050158;28;20020;-57
2022/03/30 13:00:28;;;;;;;29.90;16.73;;;15.10;90.70;;;;;;5050423;28;20100;-57
2022/03/30 13:03:13;;;;;;;31.38;16.40;;;15.30;90.20;;;;;;5050272;28;20539;-57
2022/03/30 13:05:42;;;;;;;28.50;17.08;;;15.40;90.50;;;;;;5050224;28;20421;-58
2022/03/30 13:08:14;;;;;;;25.88;15.27;;;15.70;88.50;;;;;;5050365;28;20205;-57